createdAt,value
2022-10-03T00:00:04.187Z,3.60
2022-10-03T00:02:45.122Z,3.92
2022-10-03T00:05:31.110Z,4.03
2022-10-03T00:08:14.934Z,3.20
2022-10-03T00:10:54.120Z,3.95
2022-10-03T00:13:28.730Z,3.47
2022-10-03T00:16:09.521Z,3.65
2022-10-03T00:18:50.915Z,3.45
2022-10-03T00:21:33.781Z,2.85
2022-10-03T00:24:14.748Z,3.65
2022-10-03T00:26:51.373Z,3.53
2022-10-03T00:29:31.363Z,4.00
2022-10-03T00:32:08.492Z,3.80
2022-10-03T00:35:03.658Z,3.67
2022-10-03T00:37:37.945Z,3.25
2022-10-03T00:40:36.096Z,3.78
2022-10-03T00:43:43.601Z,4.03
2022-10-03T00:46:34.974Z,3.95
2022-10-03T00:49:46.095Z,4.00
2022-10-03T00:52:38.925Z,3.72
2022-10-03T00:55:17.982Z,3.25
2022-10-03T00:58:11.601Z,3.88
2022-10-03T01:00:42.357Z,4.00
2022-10-03T01:03:31.035Z,4.45
2022-10-03T01:06:19.496Z,3.42
2022-10-03T01:09:23.952Z,3.45
2022-10-03T01:12:05.185Z,3.38
2022-10-03T01:14:54.804Z,2.97
2022-10-03T01:17:34.848Z,3.25
2022-10-03T01:20:19.140Z,2.90
2022-10-03T01:23:33.779Z,2.95
2022-10-03T01:26:16.058Z,3.20
2022-10-03T01:29:10.168Z,3.45
2022-10-03T01:31:46.170Z,3.72
2022-10-03T01:34:23.147Z,3.15
2022-10-03T01:37:03.093Z,2.90
2022-10-03T01:39:38.733Z,2.97
2022-10-03T01:42:13.120Z,2.70
2022-10-03T01:44:58.113Z,3.10
2022-10-03T01:47:32.737Z,3.00
2022-10-03T01:50:08.505Z,3.50
2022-10-03T01:52:42.891Z,2.88
2022-10-03T01:55:21.056Z,2.80
2022-10-03T01:58:01.067Z,2.95
2022-10-03T02:00:38.077Z,2.97
2022-10-03T02:03:12.699Z,3.42
2022-10-03T02:05:47.933Z,3.50
2022-10-03T02:08:28.335Z,3.22
2022-10-03T02:11:02.631Z,3.03
2022-10-03T02:13:41.973Z,2.67
2022-10-03T02:16:15.468Z,2.75
2022-10-03T02:18:48.907Z,3.58
2022-10-03T02:21:21.329Z,3.40
2022-10-03T02:23:51.152Z,3.45
2022-10-03T02:26:59.100Z,3.05
2022-10-03T02:29:43.700Z,2.80
2022-10-03T02:32:35.697Z,3.08
2022-10-03T02:35:33.339Z,2.90
2022-10-03T02:38:19.699Z,2.70
2022-10-03T02:41:18.707Z,3.25
2022-10-03T02:44:25.953Z,2.88
2022-10-03T02:47:35.742Z,3.13
2022-10-03T02:50:47.409Z,3.10
2022-10-03T02:53:45.991Z,3.22
2022-10-03T02:56:44.352Z,2.78
2022-10-03T02:59:36.506Z,2.67
2022-10-03T03:02:28.830Z,2.47
2022-10-03T03:05:23.446Z,2.88
2022-10-03T03:08:19.189Z,3.17
2022-10-03T03:11:18.645Z,2.47
2022-10-03T03:14:29.215Z,2.45
2022-10-03T03:17:13.031Z,3.05
2022-10-03T03:19:52.213Z,2.85
2022-10-03T03:22:42.644Z,2.55
2022-10-03T03:25:30.269Z,2.70
2022-10-03T03:28:13.000Z,2.85
2022-10-03T03:30:48.988Z,2.63
2022-10-03T03:33:25.447Z,3.10
2022-10-03T03:36:02.342Z,3.15
2022-10-03T03:38:38.250Z,2.72
2022-10-03T03:41:25.219Z,2.45
2022-10-03T03:44:13.431Z,3.03
2022-10-03T03:46:51.793Z,2.95
2022-10-03T03:49:32.277Z,2.67
2022-10-03T03:52:18.166Z,2.78
2022-10-03T03:55:06.239Z,2.97
2022-10-03T03:58:13.337Z,2.60
2022-10-03T04:00:59.378Z,2.60
2022-10-03T04:03:39.913Z,2.75
2022-10-03T04:06:36.537Z,2.95
2022-10-03T04:09:21.467Z,2.97
2022-10-03T04:11:58.401Z,2.85
2022-10-03T04:15:03.416Z,2.28
2022-10-03T04:18:04.600Z,2.80
2022-10-03T04:20:58.766Z,2.90
2022-10-03T04:23:50.120Z,2.75
2022-10-03T04:26:31.253Z,3.05
2022-10-03T04:29:31.264Z,2.97
2022-10-03T04:32:11.988Z,3.63
2022-10-03T04:34:57.322Z,2.83
2022-10-03T04:37:40.316Z,2.92
2022-10-03T04:40:28.951Z,2.92
2022-10-03T04:43:09.307Z,2.88
2022-10-03T04:45:49.236Z,2.42
2022-10-03T04:48:29.563Z,3.22
2022-10-03T04:51:07.714Z,3.67
2022-10-03T04:53:46.230Z,3.28
2022-10-03T04:56:45.221Z,3.28
2022-10-03T04:59:37.838Z,3.50
2022-10-03T05:02:12.770Z,2.70
2022-10-03T05:04:55.643Z,2.95
2022-10-03T05:07:30.741Z,2.63
2022-10-03T05:10:10.260Z,3.20
2022-10-03T05:12:52.056Z,2.90
2022-10-03T05:15:25.335Z,2.80
2022-10-03T05:18:03.577Z,2.70
2022-10-03T05:20:52.502Z,2.83
2022-10-03T05:23:31.737Z,2.92
2022-10-03T05:26:43.136Z,3.70
2022-10-03T05:29:11.088Z,3.53
2022-10-03T05:31:50.915Z,3.03
2022-10-03T05:34:31.112Z,3.30
2022-10-03T05:37:24.530Z,6.35
2022-10-03T05:39:59.917Z,12.43
2022-10-03T05:42:41.039Z,8.30
2022-10-03T05:45:26.003Z,7.97
2022-10-03T05:48:07.135Z,13.32
2022-10-03T05:51:13.388Z,21.00
2022-10-03T05:54:06.267Z,16.75
2022-10-03T05:56:50.009Z,14.98
2022-10-03T05:59:49.544Z,9.45
2022-10-03T06:03:05.606Z,10.82
2022-10-03T06:05:45.810Z,13.07
2022-10-03T06:08:43.590Z,8.85
2022-10-03T06:11:36.168Z,8.90
2022-10-03T06:14:29.026Z,4.97
2022-10-03T06:17:15.374Z,4.05
2022-10-03T06:19:51.129Z,9.27
2022-10-03T06:22:40.639Z,29.25
2022-10-03T06:25:37.594Z,18.00
2022-10-03T06:28:32.276Z,8.30
2022-10-03T06:34:14.356Z,4.80
2022-10-03T06:37:04.203Z,7.25
2022-10-03T06:40:11.047Z,8.57
2022-10-03T06:43:02.272Z,9.07
2022-10-03T06:46:03.014Z,7.85
2022-10-03T06:49:06.316Z,5.75
2022-10-03T06:52:11.287Z,5.10
2022-10-03T06:55:34.417Z,4.95
2022-10-03T06:58:40.800Z,5.07
2022-10-03T07:01:50.915Z,5.55
2022-10-03T07:05:02.653Z,5.05
2022-10-03T07:08:07.283Z,5.15
2022-10-03T07:10:56.084Z,5.32
2022-10-03T07:13:50.795Z,6.22
2022-10-03T07:19:20.243Z,6.25
2022-10-03T07:22:15.093Z,5.18
2022-10-03T07:25:23.117Z,5.13
2022-10-03T07:28:07.129Z,5.50
2022-10-03T07:30:56.330Z,5.75
2022-10-03T07:33:52.318Z,5.95
2022-10-03T07:36:50.885Z,6.35
2022-10-03T07:39:53.811Z,6.15
2022-10-03T07:42:55.373Z,6.03
2022-10-03T07:45:33.868Z,7.47
2022-10-03T07:48:25.550Z,6.55
2022-10-03T07:51:14.278Z,6.25
2022-10-03T07:54:20.225Z,6.68
2022-10-03T07:57:12.984Z,6.32
2022-10-03T08:00:05.802Z,5.80
2022-10-03T08:03:03.346Z,6.20
2022-10-03T08:05:47.279Z,6.75
2022-10-03T08:08:42.143Z,5.70
2022-10-03T08:14:19.303Z,6.28
2022-10-03T08:17:04.397Z,5.85
2022-10-03T08:20:09.784Z,6.28
2022-10-03T08:22:50.613Z,5.72
2022-10-03T08:25:34.551Z,5.90
2022-10-03T08:28:24.046Z,6.45
2022-10-03T08:31:21.132Z,5.60
2022-10-03T08:34:07.967Z,4.40
2022-10-03T08:37:22.254Z,5.28
2022-10-03T08:40:21.877Z,5.38
2022-10-03T08:43:48.913Z,5.57
2022-10-03T08:46:37.983Z,5.30
2022-10-03T08:49:29.769Z,4.40
2022-10-03T08:52:08.819Z,4.43
2022-10-03T08:55:02.926Z,4.18
2022-10-03T08:57:54.478Z,5.25
2022-10-03T09:00:25.058Z,4.22
2022-10-03T09:03:39.311Z,4.03
2022-10-03T09:07:12.568Z,3.28
2022-10-03T09:10:12.244Z,3.40
2022-10-03T09:13:23.047Z,3.75
2022-10-03T09:16:31.001Z,3.45
2022-10-03T09:19:20.250Z,3.88
2022-10-03T09:22:16.163Z,3.47
2022-10-03T09:25:14.819Z,3.50
2022-10-03T09:27:59.680Z,3.50
2022-10-03T09:30:43.547Z,3.42
2022-10-03T09:33:42.954Z,2.85
2022-10-03T09:36:58.244Z,3.13
2022-10-03T09:39:54.819Z,3.13
2022-10-03T09:42:53.527Z,2.55
2022-10-03T09:45:43.378Z,2.90
2022-10-03T09:48:38.526Z,2.88
2022-10-03T09:51:22.466Z,2.33
2022-10-03T09:54:37.828Z,3.03
2022-10-03T09:57:38.916Z,2.28
2022-10-03T10:00:27.844Z,1.63
2022-10-03T10:03:23.450Z,1.92
2022-10-03T10:06:24.650Z,1.90
2022-10-03T10:09:28.409Z,1.75
2022-10-03T10:12:39.156Z,2.70
2022-10-03T10:15:44.806Z,1.80
2022-10-03T10:18:40.841Z,2.33
2022-10-03T10:21:37.322Z,2.40
2022-10-03T10:24:46.774Z,2.08
2022-10-03T10:27:38.364Z,1.88
2022-10-03T10:30:30.030Z,1.98
2022-10-03T10:33:40.486Z,2.20
2022-10-03T10:37:05.649Z,1.48
2022-10-03T10:39:55.035Z,1.52
2022-10-03T10:43:16.914Z,1.25
2022-10-03T10:45:56.995Z,1.58
2022-10-03T10:49:03.469Z,1.30
2022-10-03T10:52:24.608Z,1.10
2022-10-03T10:55:45.333Z,1.20
2022-10-03T10:58:57.980Z,2.05
2022-10-03T11:02:21.592Z,2.53
2022-10-03T11:05:24.521Z,1.45
2022-10-03T11:08:27.633Z,1.75
2022-10-03T11:11:25.267Z,1.33
2022-10-03T11:14:28.194Z,1.15
2022-10-03T11:17:39.420Z,1.15
2022-10-03T11:20:41.586Z,1.50
2022-10-03T11:23:43.852Z,1.60
2022-10-03T11:26:59.303Z,1.45
2022-10-03T11:30:03.271Z,1.08
2022-10-03T11:32:56.545Z,1.48
2022-10-03T11:36:10.745Z,0.93
2022-10-03T11:38:49.189Z,1.05
2022-10-03T11:41:30.771Z,1.58
2022-10-03T11:44:17.548Z,1.33
2022-10-03T11:46:58.369Z,1.05
2022-10-03T11:50:13.299Z,1.40
2022-10-03T11:52:57.072Z,1.40
2022-10-03T11:55:33.153Z,1.27
2022-10-03T11:58:16.449Z,1.35
2022-10-03T12:00:53.033Z,1.48
2022-10-03T12:03:26.890Z,1.20
2022-10-03T12:06:13.586Z,1.13
2022-10-03T12:08:57.373Z,1.38
2022-10-03T12:11:29.367Z,1.42
2022-10-03T12:14:29.354Z,1.23
2022-10-03T12:17:09.161Z,1.63
2022-10-03T12:19:44.063Z,1.20
2022-10-03T12:22:23.258Z,1.45
2022-10-03T12:24:51.808Z,1.33
2022-10-03T12:27:30.192Z,1.30
2022-10-03T12:30:02.211Z,1.73
2022-10-03T12:32:41.045Z,1.50
2022-10-03T12:35:31.268Z,0.98
2022-10-03T12:38:08.842Z,1.95
2022-10-03T12:40:41.859Z,1.70
2022-10-03T12:43:24.549Z,2.00
2022-10-03T12:46:00.497Z,1.58
2022-10-03T12:48:44.240Z,1.80
2022-10-03T12:51:23.317Z,1.80
2022-10-03T12:54:03.816Z,1.30
2022-10-03T12:56:42.128Z,1.55
2022-10-03T12:59:32.004Z,1.55
2022-10-03T13:02:21.576Z,1.38
2022-10-03T13:05:17.073Z,1.77
2022-10-03T13:07:53.382Z,1.63
2022-10-03T13:10:31.729Z,1.48
2022-10-03T13:13:15.483Z,1.65
2022-10-03T13:16:24.332Z,1.60
2022-10-03T13:19:05.619Z,1.33
2022-10-03T13:21:53.373Z,0.98
2022-10-03T13:24:32.493Z,1.75
2022-10-03T13:27:10.669Z,1.40
2022-10-03T13:29:43.589Z,1.45
2022-10-03T13:32:20.918Z,1.23
2022-10-03T13:35:25.307Z,1.58
2022-10-03T13:38:13.964Z,1.50
2022-10-03T13:40:46.545Z,1.67
2022-10-03T13:43:19.573Z,1.40
2022-10-03T13:45:50.250Z,1.58
2022-10-03T13:48:21.343Z,1.80
2022-10-03T13:50:58.393Z,1.60
2022-10-03T13:53:45.294Z,2.17
2022-10-03T13:56:19.941Z,1.90
2022-10-03T13:58:55.819Z,1.95
2022-10-03T14:01:39.441Z,1.55
2022-10-03T14:04:35.608Z,2.08
2022-10-03T14:07:14.348Z,1.52
2022-10-03T14:10:10.578Z,1.45
2022-10-03T14:12:56.011Z,1.90
2022-10-03T14:15:36.245Z,2.17
2022-10-03T14:18:17.876Z,1.52
2022-10-03T14:21:24.336Z,1.90
2022-10-03T14:23:58.008Z,1.95
2022-10-03T14:26:35.857Z,2.22
2022-10-03T14:29:09.281Z,1.38
2022-10-03T14:31:43.343Z,2.05
2022-10-03T14:34:35.784Z,2.03
2022-10-03T14:37:16.432Z,2.83
2022-10-03T14:39:58.584Z,20.05
2022-10-03T14:42:39.385Z,14.10
2022-10-03T14:45:11.073Z,5.25
2022-10-03T14:47:43.520Z,3.55
2022-10-03T14:50:18.223Z,2.22
2022-10-03T14:52:50.653Z,3.10
2022-10-03T14:55:21.321Z,4.75
2022-10-03T14:58:09.827Z,3.88
2022-10-03T15:00:43.790Z,2.97
2022-10-03T15:03:33.643Z,2.25
2022-10-03T15:06:20.945Z,2.72
2022-10-03T15:08:52.641Z,2.38
2022-10-03T15:11:27.247Z,2.03
2022-10-03T15:14:02.413Z,2.25
2022-10-03T15:16:34.859Z,2.28
2022-10-03T15:19:07.430Z,1.77
2022-10-03T15:21:36.152Z,2.22
2022-10-03T15:24:06.799Z,2.13
2022-10-03T15:26:36.943Z,2.63
2022-10-03T15:29:08.744Z,2.20
2022-10-03T15:31:39.908Z,1.88
2022-10-03T15:34:16.729Z,1.63
2022-10-03T15:36:50.334Z,1.85
2022-10-03T15:39:24.857Z,2.35
2022-10-03T15:41:57.272Z,1.95
2022-10-03T15:44:33.737Z,2.05
2022-10-03T15:47:06.154Z,2.15
2022-10-03T15:49:38.595Z,2.22
2022-10-03T15:52:24.354Z,2.30
2022-10-03T15:55:11.040Z,1.90
2022-10-03T15:57:45.191Z,2.17
2022-10-03T16:00:24.502Z,2.00
2022-10-03T16:02:59.908Z,1.60
2022-10-03T16:05:28.557Z,2.30
2022-10-03T16:08:02.594Z,1.98
2022-10-03T16:10:36.623Z,2.13
2022-10-03T16:13:14.839Z,2.47
2022-10-03T16:16:04.598Z,2.05
2022-10-03T16:18:47.026Z,2.50
2022-10-03T16:21:20.474Z,2.38
2022-10-03T16:23:54.948Z,2.25
2022-10-03T16:26:24.854Z,1.98
2022-10-03T16:28:59.061Z,2.70
2022-10-03T16:34:00.688Z,2.45
2022-10-03T16:36:29.291Z,2.40
2022-10-03T16:38:59.955Z,3.17
2022-10-03T16:41:31.880Z,2.83
2022-10-03T16:44:02.111Z,2.65
2022-10-03T16:46:35.100Z,2.50
2022-10-03T16:49:23.516Z,2.17
2022-10-03T16:51:58.093Z,2.28
2022-10-03T16:54:29.179Z,2.55
2022-10-03T16:57:01.213Z,2.55
2022-10-03T16:59:32.249Z,2.60
2022-10-03T17:02:06.011Z,2.58
2022-10-03T17:04:39.131Z,2.45
2022-10-03T17:07:14.481Z,2.67
2022-10-03T17:09:46.511Z,2.40
2022-10-03T17:12:20.114Z,3.00
2022-10-03T17:14:50.034Z,2.78
2022-10-03T17:17:29.223Z,2.80
2022-10-03T17:20:00.907Z,2.83
2022-10-03T17:22:37.288Z,3.28
2022-10-03T17:25:08.928Z,2.60
2022-10-03T17:27:39.870Z,2.90
2022-10-03T17:30:20.613Z,3.38
2022-10-03T17:32:54.891Z,4.00
2022-10-03T17:38:37.531Z,3.55
2022-10-03T17:41:18.762Z,3.30
2022-10-03T17:43:58.110Z,3.03
2022-10-03T17:46:37.098Z,3.55
2022-10-03T17:49:18.806Z,3.28
2022-10-03T17:51:48.233Z,3.70
2022-10-03T17:54:20.321Z,3.60
2022-10-03T17:56:53.396Z,3.90
2022-10-03T17:59:28.070Z,3.97
2022-10-03T18:02:00.250Z,3.70
2022-10-03T18:04:34.903Z,3.72
2022-10-03T18:07:07.967Z,3.70
2022-10-03T18:09:40.793Z,3.88
2022-10-03T18:12:22.298Z,4.43
2022-10-03T18:15:35.637Z,4.32
2022-10-03T18:18:21.784Z,5.13
2022-10-03T18:20:58.080Z,6.45
2022-10-03T18:23:54.250Z,6.90
2022-10-03T18:26:28.209Z,6.50
2022-10-03T18:29:07.039Z,6.38
2022-10-03T18:31:40.260Z,7.05
2022-10-03T18:34:13.903Z,7.72
2022-10-03T18:36:48.457Z,9.00
2022-10-03T18:41:47.847Z,8.55
2022-10-03T18:44:19.623Z,8.40
2022-10-03T18:46:52.783Z,8.65
2022-10-03T18:49:34.496Z,8.15
2022-10-03T18:52:11.543Z,9.15
2022-10-03T18:54:51.232Z,9.70
2022-10-03T18:57:24.221Z,9.50
2022-10-03T18:59:57.805Z,10.15
2022-10-03T19:02:32.880Z,8.30
2022-10-03T19:05:09.792Z,8.05
2022-10-03T19:07:45.196Z,8.68
2022-10-03T19:10:27.049Z,8.07
2022-10-03T19:13:03.286Z,8.50
2022-10-03T19:15:44.110Z,8.95
2022-10-03T19:18:26.363Z,8.35
2022-10-03T19:20:57.506Z,8.73
2022-10-03T19:23:30.066Z,8.57
2022-10-03T19:26:03.154Z,9.23
2022-10-03T19:28:33.855Z,10.63
2022-10-03T19:31:06.714Z,9.57
2022-10-03T19:33:44.291Z,12.98
2022-10-03T19:36:17.667Z,11.98
2022-10-03T19:38:48.581Z,11.00
2022-10-03T19:41:29.127Z,12.32
2022-10-03T19:44:02.922Z,23.63
2022-10-03T19:46:57.775Z,30.60
2022-10-03T19:52:12.915Z,15.10
2022-10-03T19:54:54.955Z,13.35
2022-10-03T19:57:28.309Z,12.30
2022-10-03T19:59:59.986Z,11.73
2022-10-03T20:02:29.868Z,11.48
2022-10-03T20:04:58.915Z,10.48
2022-10-03T20:07:40.576Z,11.10
2022-10-03T20:10:24.905Z,9.57
2022-10-03T20:12:54.256Z,9.05
2022-10-03T20:15:25.418Z,9.00
2022-10-03T20:18:00.196Z,9.68
2022-10-03T20:20:32.239Z,10.57
2022-10-03T20:23:05.652Z,10.10
2022-10-03T20:25:39.413Z,11.75
2022-10-03T20:28:16.411Z,11.90
2022-10-03T20:30:47.907Z,10.75
2022-10-03T20:33:20.620Z,11.18
2022-10-03T20:35:56.607Z,10.75
2022-10-03T20:38:33.521Z,11.65
2022-10-03T20:41:09.882Z,12.35
2022-10-03T20:43:44.441Z,11.45
2022-10-03T20:46:22.182Z,10.82
2022-10-03T20:49:04.543Z,12.93
2022-10-03T20:51:40.673Z,12.40
2022-10-03T20:54:15.296Z,12.57
2022-10-03T20:56:58.066Z,15.32
2022-10-03T20:59:36.093Z,17.35
2022-10-03T21:02:09.775Z,12.98
2022-10-03T21:04:44.051Z,12.27
2022-10-03T21:09:54.377Z,11.30
2022-10-03T21:12:28.761Z,9.85
2022-10-03T21:15:01.977Z,8.93
2022-10-03T21:17:30.674Z,8.43
2022-10-03T21:20:02.117Z,8.77
2022-10-03T21:22:31.599Z,8.85
2022-10-03T21:25:03.066Z,9.98
2022-10-03T21:27:34.431Z,8.82
2022-10-03T21:30:15.172Z,8.60
2022-10-03T21:33:01.290Z,8.98
2022-10-03T21:35:31.991Z,8.73
2022-10-03T21:38:13.808Z,7.97
2022-10-03T21:41:10.775Z,8.05
2022-10-03T21:43:47.934Z,7.20
2022-10-03T21:46:22.760Z,7.35
2022-10-03T21:49:14.136Z,7.93
2022-10-03T21:52:00.518Z,8.68
2022-10-03T21:54:37.244Z,8.00
2022-10-03T21:57:15.436Z,6.50
2022-10-03T22:00:00.358Z,7.30
2022-10-03T22:02:35.834Z,6.65
2022-10-03T22:05:10.676Z,7.47
2022-10-03T22:07:40.965Z,7.75
2022-10-03T22:10:21.242Z,10.88
2022-10-03T22:12:52.804Z,13.20
2022-10-03T22:15:35.501Z,11.20
2022-10-03T22:18:07.936Z,9.93
2022-10-03T22:20:36.738Z,7.30
2022-10-03T22:23:22.377Z,7.03
2022-10-03T22:26:04.703Z,6.53
2022-10-03T22:28:46.045Z,6.95
2022-10-03T22:31:23.478Z,7.20
2022-10-03T22:34:02.435Z,7.20
2022-10-03T22:36:31.514Z,6.60
2022-10-03T22:38:59.658Z,7.25
2022-10-03T22:41:31.532Z,7.13
2022-10-03T22:44:01.514Z,7.25
2022-10-03T22:46:33.441Z,8.02
2022-10-03T22:49:09.272Z,7.13
2022-10-03T22:51:40.958Z,7.05
2022-10-03T22:54:12.385Z,6.40
2022-10-03T22:56:46.965Z,7.07
2022-10-03T22:59:20.304Z,6.57
2022-10-03T23:01:53.220Z,6.07
2022-10-03T23:04:33.822Z,6.55
2022-10-03T23:07:26.557Z,7.03
2022-10-03T23:10:04.070Z,6.40
2022-10-03T23:12:39.213Z,6.43
2022-10-03T23:15:09.680Z,5.80
2022-10-03T23:18:06.130Z,5.90
2022-10-03T23:20:59.276Z,5.55
2022-10-03T23:23:34.574Z,6.93
2022-10-03T23:26:18.248Z,6.88
2022-10-03T23:29:02.874Z,6.53
2022-10-03T23:31:55.612Z,6.90
2022-10-03T23:34:47.791Z,6.55
2022-10-03T23:37:40.064Z,7.18
2022-10-03T23:40:24.671Z,7.85
2022-10-03T23:43:00.749Z,7.35
2022-10-03T23:45:29.702Z,7.30
2022-10-03T23:48:02.194Z,7.55
2022-10-03T23:50:40.508Z,7.35
2022-10-03T23:53:17.490Z,7.47
2022-10-03T23:55:45.669Z,8.43
2022-10-03T23:58:26.205Z,7.60
